createdAt,value
2018-06-28T00:01:50.481Z,96230.00
2018-06-28T00:04:20.670Z,96132.00
2018-06-28T00:06:51.484Z,96234.00
2018-06-28T00:09:23.148Z,96223.00
2018-06-28T00:11:54.647Z,96231.00
2018-06-28T00:14:24.854Z,96230.00
2018-06-28T00:16:55.220Z,96235.00
2018-06-28T00:19:25.677Z,96231.00
2018-06-28T00:21:55.913Z,96220.00
2018-06-28T00:24:27.137Z,96233.00
2018-06-28T00:26:58.154Z,96238.00
2018-06-28T00:29:28.338Z,96223.00
2018-06-28T00:32:01.092Z,96220.00
2018-06-28T00:34:38.666Z,96221.00
2018-06-28T00:37:09.226Z,96227.00
2018-06-28T00:39:39.842Z,96230.00
2018-06-28T00:42:10.101Z,96233.00
2018-06-28T00:44:40.302Z,96232.00
2018-06-28T00:47:12.758Z,96228.00
2018-06-28T00:49:43.200Z,96228.00
2018-06-28T00:52:13.460Z,96245.00
2018-06-28T00:54:43.743Z,96216.00
2018-06-28T00:57:13.975Z,96215.00
2018-06-28T00:59:44.180Z,96212.00
2018-06-28T01:02:14.455Z,96199.00
2018-06-28T01:04:44.695Z,96193.00
2018-06-28T01:07:17.255Z,96187.00
2018-06-28T01:12:10.475Z,96193.00
2018-06-28T01:14:40.726Z,96184.00
2018-06-28T01:17:11.056Z,96190.00
2018-06-28T01:19:41.852Z,96174.00
2018-06-28T01:22:12.126Z,96170.00
2018-06-28T01:24:50.757Z,96167.00
2018-06-28T01:27:22.238Z,96173.00
2018-06-28T01:29:53.043Z,96172.00
2018-06-28T01:32:23.431Z,96175.00
2018-06-28T01:34:54.990Z,96155.00
2018-06-28T01:37:25.215Z,96157.00
2018-06-28T01:39:55.734Z,96154.00
2018-06-28T01:42:53.730Z,96153.00
2018-06-28T01:45:32.369Z,96153.00
2018-06-28T01:48:10.904Z,96154.00
2018-06-28T01:50:42.571Z,96156.00
2018-06-28T01:53:16.046Z,96152.00
2018-06-28T01:55:46.743Z,96154.00
2018-06-28T01:58:18.179Z,96152.00
2018-06-28T02:00:48.480Z,96154.00
2018-06-28T02:03:19.043Z,96155.00
2018-06-28T02:05:50.705Z,96147.00
2018-06-28T02:08:21.419Z,96152.00
2018-06-28T02:10:51.669Z,96152.00
2018-06-28T02:13:21.968Z,96157.00
2018-06-28T02:15:52.178Z,96152.00
2018-06-28T02:18:22.585Z,96156.00
2018-06-28T02:20:52.840Z,96143.00
2018-06-28T02:23:23.130Z,96150.00
2018-06-28T02:25:56.224Z,96147.00
2018-06-28T02:28:26.786Z,96137.00
2018-06-28T02:30:56.987Z,96133.00
2018-06-28T02:33:27.462Z,96131.00
2018-06-28T02:36:02.223Z,96140.00
2018-06-28T02:38:39.567Z,96136.00
2018-06-28T02:41:15.404Z,96125.00
2018-06-28T02:43:45.759Z,96127.00
2018-06-28T02:46:16.021Z,96128.00
2018-06-28T02:48:52.220Z,96127.00
2018-06-28T02:51:23.033Z,96129.00
2018-06-28T02:53:53.307Z,96129.00
2018-06-28T02:56:25.248Z,96140.00
2018-06-28T02:58:56.048Z,96126.00
2018-06-28T03:01:29.291Z,96144.00
2018-06-28T03:03:59.577Z,96136.00
2018-06-28T03:06:29.872Z,96127.00
2018-06-28T03:09:00.272Z,96137.00
2018-06-28T03:11:30.500Z,96124.00
2018-06-28T03:14:00.736Z,96130.00
2018-06-28T03:16:30.961Z,96130.00
2018-06-28T03:19:01.219Z,96122.00
2018-06-28T03:21:31.651Z,96135.00
2018-06-28T03:24:07.242Z,96126.00
2018-06-28T03:26:49.135Z,96131.00
2018-06-28T03:29:19.455Z,96130.00
2018-06-28T03:31:49.768Z,96117.00
2018-06-28T03:34:20.041Z,96138.00
2018-06-28T03:36:50.266Z,96135.00
2018-06-28T03:39:26.718Z,96136.00
2018-06-28T03:41:56.931Z,96147.00
2018-06-28T03:44:27.882Z,96143.00
2018-06-28T03:46:58.139Z,96142.00
2018-06-28T03:49:28.390Z,96130.00
2018-06-28T03:51:59.631Z,96138.00
2018-06-28T03:54:29.979Z,96135.00
2018-06-28T03:57:00.356Z,96136.00
2018-06-28T03:59:39.127Z,96122.00
2018-06-28T04:02:14.132Z,96125.00
2018-06-28T04:04:45.271Z,96125.00
2018-06-28T04:07:17.143Z,96131.00
2018-06-28T04:09:47.697Z,96129.00
2018-06-28T04:12:17.928Z,96124.00
2018-06-28T04:14:48.178Z,96119.00
2018-06-28T04:17:18.406Z,96127.00
2018-06-28T04:19:48.655Z,96121.00
2018-06-28T04:22:25.051Z,96124.00
2018-06-28T04:24:55.322Z,96122.00
2018-06-28T04:27:25.729Z,96129.00
2018-06-28T04:29:55.971Z,96124.00
2018-06-28T04:32:26.322Z,96120.00
2018-06-28T04:34:56.835Z,96122.00
2018-06-28T04:37:27.383Z,96119.00
2018-06-28T04:39:57.624Z,96109.00
2018-06-28T04:42:27.627Z,96116.00
2018-06-28T04:44:57.884Z,96131.00
2018-06-28T04:47:28.169Z,96121.00
2018-06-28T04:49:58.660Z,96119.00
2018-06-28T04:52:31.856Z,96123.00
2018-06-28T04:55:03.231Z,96122.00
2018-06-28T04:57:33.687Z,96117.00
2018-06-28T05:00:04.003Z,96121.00
2018-06-28T05:02:34.337Z,96119.00
2018-06-28T05:05:04.603Z,96115.00
2018-06-28T05:07:34.835Z,96115.00
2018-06-28T05:10:05.192Z,96113.00
2018-06-28T05:12:35.722Z,96120.00
2018-06-28T05:15:06.020Z,96109.00
2018-06-28T05:17:36.962Z,96113.00
2018-06-28T05:20:11.081Z,96105.00
2018-06-28T05:22:47.762Z,96114.00
2018-06-28T05:25:19.709Z,96101.00
2018-06-28T05:27:51.347Z,96104.00
2018-06-28T05:30:21.701Z,96104.00
2018-06-28T05:32:52.048Z,96108.00
2018-06-28T05:35:22.335Z,96104.00
2018-06-28T05:37:52.740Z,96106.00
2018-06-28T05:40:23.180Z,96109.00
2018-06-28T05:42:53.411Z,96106.00
2018-06-28T05:45:24.845Z,96109.00
2018-06-28T05:47:55.102Z,96112.00
2018-06-28T05:50:25.828Z,96111.00
2018-06-28T05:52:56.085Z,96111.00
2018-06-28T05:55:26.392Z,96103.00
2018-06-28T05:57:56.696Z,96102.00
2018-06-28T06:00:26.995Z,96103.00
2018-06-28T06:02:57.341Z,96100.00
2018-06-28T06:05:28.011Z,96104.00
2018-06-28T06:07:58.751Z,96102.00
2018-06-28T06:10:32.311Z,96104.00
2018-06-28T06:13:02.595Z,96101.00
2018-06-28T06:15:32.879Z,96089.00
2018-06-28T06:18:03.194Z,96085.00
2018-06-28T06:20:33.151Z,96092.00
2018-06-28T06:23:03.532Z,96091.00
2018-06-28T06:25:33.856Z,96091.00
2018-06-28T06:28:04.223Z,96094.00
2018-06-28T06:30:35.022Z,96092.00
2018-06-28T06:33:05.580Z,96096.00
2018-06-28T06:35:36.000Z,96080.00
2018-06-28T06:38:06.503Z,96075.00
2018-06-28T06:40:36.707Z,96079.00
2018-06-28T06:43:07.050Z,96076.00
2018-06-28T06:45:37.304Z,96074.00
2018-06-28T06:48:07.584Z,96075.00
2018-06-28T06:50:37.984Z,96075.00
2018-06-28T06:53:08.118Z,96084.00
2018-06-28T06:55:38.357Z,96084.00
2018-06-28T06:58:08.633Z,96085.00
2018-06-28T07:00:38.858Z,96088.00
2018-06-28T07:03:09.099Z,96082.00
2018-06-28T07:05:39.451Z,96087.00
2018-06-28T07:08:09.687Z,96077.00
2018-06-28T07:10:39.907Z,96085.00
2018-06-28T07:13:10.204Z,96087.00
2018-06-28T07:15:40.685Z,96082.00
2018-06-28T07:18:10.993Z,96080.00
2018-06-28T07:20:41.203Z,96088.00
2018-06-28T07:23:11.491Z,96081.00
2018-06-28T07:25:42.153Z,96085.00
2018-06-28T07:28:12.447Z,96082.00
2018-06-28T07:30:42.756Z,96096.00
2018-06-28T07:33:13.155Z,96084.00
2018-06-28T07:35:43.390Z,96086.00
2018-06-28T07:38:13.726Z,96085.00
2018-06-28T07:40:43.998Z,96081.00
2018-06-28T07:43:14.334Z,96083.00
2018-06-28T07:45:44.580Z,96079.00
2018-06-28T07:48:14.855Z,96079.00
2018-06-28T07:50:45.146Z,96076.00
2018-06-28T07:53:15.450Z,96077.00
2018-06-28T07:55:45.766Z,96077.00
2018-06-28T07:58:16.032Z,96081.00
2018-06-28T08:00:46.255Z,96071.00
2018-06-28T08:03:16.593Z,96075.00
2018-06-28T08:05:47.148Z,96072.00
2018-06-28T08:08:18.547Z,96072.00
2018-06-28T08:10:48.811Z,96063.00
2018-06-28T08:13:19.175Z,96074.00
2018-06-28T08:15:49.394Z,96072.00
2018-06-28T08:18:25.414Z,96090.00
2018-06-28T08:20:55.953Z,96063.00
2018-06-28T08:23:30.870Z,96061.00
2018-06-28T08:26:01.355Z,96055.00
2018-06-28T08:28:32.061Z,96053.00
2018-06-28T08:31:02.570Z,96055.00
2018-06-28T08:33:33.088Z,96058.00
2018-06-28T08:36:03.403Z,96058.00
2018-06-28T08:38:33.679Z,96064.00
2018-06-28T08:41:03.950Z,96059.00
2018-06-28T08:43:34.362Z,96055.00
2018-06-28T08:46:04.741Z,96067.00
2018-06-28T08:48:35.000Z,96063.00
2018-06-28T08:51:05.239Z,96074.00
2018-06-28T08:53:35.504Z,96080.00
2018-06-28T08:56:06.280Z,96084.00
2018-06-28T08:58:36.592Z,96079.00
2018-06-28T09:01:06.591Z,96083.00
2018-06-28T09:03:36.871Z,96082.00
2018-06-28T09:06:07.119Z,96113.00
2018-06-28T09:08:37.548Z,96095.00
2018-06-28T09:11:08.023Z,96087.00
2018-06-28T09:13:38.362Z,96104.00
2018-06-28T09:16:08.619Z,96098.00
2018-06-28T09:18:38.883Z,96092.00
2018-06-28T09:21:09.094Z,96096.00
2018-06-28T09:23:39.340Z,96094.00
2018-06-28T09:26:11.125Z,96086.00
2018-06-28T09:28:41.431Z,96090.00
2018-06-28T09:31:11.682Z,96081.00
2018-06-28T09:33:42.204Z,96088.00
2018-06-28T09:36:12.634Z,96084.00
2018-06-28T09:38:43.005Z,96090.00
2018-06-28T09:41:13.226Z,96085.00
2018-06-28T09:43:43.758Z,96089.00
2018-06-28T09:46:14.386Z,96081.00
2018-06-28T09:48:44.673Z,96087.00
2018-06-28T09:51:14.872Z,96083.00
2018-06-28T09:53:45.107Z,96081.00
2018-06-28T09:56:15.358Z,96078.00
2018-06-28T09:58:45.589Z,96073.00
2018-06-28T10:01:15.790Z,96067.00
2018-06-28T10:03:46.067Z,96067.00
2018-06-28T10:06:16.464Z,96069.00
2018-06-28T10:08:46.722Z,96062.00
2018-06-28T10:11:17.641Z,96061.00
2018-06-28T10:13:47.923Z,96061.00
2018-06-28T10:16:18.227Z,96064.00
2018-06-28T10:18:50.968Z,96059.00
2018-06-28T10:21:21.816Z,96053.00
2018-06-28T10:23:55.244Z,96053.00
2018-06-28T10:26:25.697Z,96053.00
2018-06-28T10:28:56.026Z,96050.00
2018-06-28T10:31:26.427Z,96046.00
2018-06-28T10:33:56.948Z,96041.00
2018-06-28T10:36:27.182Z,96041.00
2018-06-28T10:38:57.730Z,96049.00
2018-06-28T10:41:28.277Z,96049.00
2018-06-28T10:43:58.590Z,96050.00
2018-06-28T10:46:28.887Z,96059.00
2018-06-28T10:48:59.478Z,96064.00
2018-06-28T10:51:29.827Z,96066.00
2018-06-28T10:54:00.812Z,96063.00
2018-06-28T10:56:32.663Z,96060.00
2018-06-28T10:59:06.614Z,96054.00
2018-06-28T11:01:38.552Z,96061.00
2018-06-28T11:04:10.947Z,96062.00
2018-06-28T11:06:41.879Z,96060.00
2018-06-28T11:09:12.753Z,96066.00
2018-06-28T11:11:43.114Z,96067.00
2018-06-28T11:14:13.482Z,96068.00
2018-06-28T11:16:50.200Z,96062.00
2018-06-28T11:19:21.211Z,96063.00
2018-06-28T11:21:51.701Z,96065.00
2018-06-28T11:24:23.864Z,96062.00
2018-06-28T11:26:55.226Z,96055.00
2018-06-28T11:29:25.865Z,96052.00
2018-06-28T11:31:56.371Z,96054.00
2018-06-28T11:34:27.838Z,96046.00
2018-06-28T11:36:58.425Z,96047.00
2018-06-28T11:39:28.972Z,96048.00
2018-06-28T11:41:59.259Z,96045.00
2018-06-28T11:44:29.759Z,96043.00
2018-06-28T11:46:59.975Z,96033.00
2018-06-28T11:49:30.439Z,96032.00
2018-06-28T11:52:01.514Z,96027.00
2018-06-28T11:54:31.986Z,95948.00
2018-06-28T11:57:02.268Z,96021.00
2018-06-28T11:59:33.065Z,96020.00
2018-06-28T12:02:04.076Z,96022.00
2018-06-28T12:04:59.314Z,96013.00
2018-06-28T12:07:30.707Z,96014.00
2018-06-28T12:10:01.747Z,96017.00
2018-06-28T12:12:31.986Z,96002.00
2018-06-28T12:15:02.282Z,96009.00
2018-06-28T12:17:32.850Z,96005.00
2018-06-28T12:20:03.639Z,96006.00
2018-06-28T12:22:34.339Z,96006.00
2018-06-28T12:25:05.680Z,96004.00
2018-06-28T12:27:36.008Z,96001.00
2018-06-28T12:30:06.853Z,95997.00
2018-06-28T12:32:37.431Z,95983.00
2018-06-28T12:35:07.774Z,95985.00
2018-06-28T12:37:38.031Z,95985.00
2018-06-28T12:40:08.459Z,95980.00
2018-06-28T12:42:39.419Z,95980.00
2018-06-28T12:45:09.962Z,95971.00
2018-06-28T12:48:04.726Z,95971.00
2018-06-28T12:50:35.138Z,95971.00
2018-06-28T12:53:06.588Z,95973.00
2018-06-28T12:56:45.467Z,95965.00
2018-06-28T12:59:22.754Z,95972.00
2018-06-28T13:01:53.450Z,95966.00
2018-06-28T13:04:23.728Z,95966.00
2018-06-28T13:06:54.019Z,95961.00
2018-06-28T13:09:24.267Z,95964.00
2018-06-28T13:11:54.557Z,95967.00
2018-06-28T13:14:24.831Z,95974.00
2018-06-28T13:16:55.110Z,95981.00
2018-06-28T13:19:25.369Z,95976.00
2018-06-28T13:21:55.852Z,95976.00
2018-06-28T13:24:26.190Z,95972.00
2018-06-28T13:26:57.602Z,95960.00
2018-06-28T13:29:29.230Z,95958.00
2018-06-28T13:31:59.688Z,95962.00
2018-06-28T13:34:30.293Z,95955.00
2018-06-28T13:37:00.515Z,95954.00
2018-06-28T13:39:30.850Z,95951.00
2018-06-28T13:42:01.144Z,95944.00
2018-06-28T13:44:31.857Z,95948.00
2018-06-28T13:47:02.077Z,95941.00
2018-06-28T13:49:32.462Z,95944.00
2018-06-28T13:52:02.678Z,95936.00
2018-06-28T13:54:32.938Z,95938.00
2018-06-28T13:57:03.287Z,95939.00
2018-06-28T13:59:33.883Z,95937.00
2018-06-28T14:02:04.790Z,95932.00
2018-06-28T14:04:35.354Z,95944.00
2018-06-28T14:07:06.161Z,95932.00
2018-06-28T14:09:36.445Z,95929.00
2018-06-28T14:12:07.164Z,95922.00
2018-06-28T14:14:37.656Z,95927.00
2018-06-28T14:17:07.894Z,95931.00
2018-06-28T14:19:38.211Z,95920.00
2018-06-28T14:22:08.485Z,95924.00
2018-06-28T14:24:38.716Z,95917.00
2018-06-28T14:27:09.018Z,95909.00
2018-06-28T14:29:39.293Z,95898.00
2018-06-28T14:32:09.606Z,95908.00
2018-06-28T14:34:39.883Z,95908.00
2018-06-28T14:37:10.276Z,95915.00
2018-06-28T14:39:41.026Z,95903.00
2018-06-28T14:42:11.286Z,95909.00
2018-06-28T14:44:42.504Z,95915.00
2018-06-28T14:47:12.901Z,95903.00
2018-06-28T14:49:43.183Z,95905.00
2018-06-28T14:52:13.914Z,95901.00
2018-06-28T14:54:44.671Z,95902.00
2018-06-28T14:57:15.083Z,95896.00
2018-06-28T14:59:45.351Z,95901.00
2018-06-28T15:02:15.699Z,95902.00
2018-06-28T15:04:58.539Z,95897.00
2018-06-28T15:07:30.012Z,95893.00
2018-06-28T15:10:08.017Z,95891.00
2018-06-28T15:12:39.253Z,95898.00
2018-06-28T15:15:10.870Z,95889.00
2018-06-28T15:17:47.468Z,95900.00
2018-06-28T15:20:17.671Z,95903.00
2018-06-28T15:22:48.083Z,95903.00
2018-06-28T15:25:18.426Z,95903.00
2018-06-28T15:27:49.492Z,95906.00
2018-06-28T15:30:19.762Z,95916.00
2018-06-28T15:32:50.271Z,95916.00
2018-06-28T15:35:20.530Z,95906.00
2018-06-28T15:37:54.943Z,95908.00
2018-06-28T15:40:26.306Z,95903.00
2018-06-28T15:42:56.895Z,95899.00
2018-06-28T15:45:27.395Z,95898.00
2018-06-28T15:47:58.680Z,95907.00
2018-06-28T15:50:28.950Z,95905.00
2018-06-28T15:53:00.540Z,95911.00
2018-06-28T15:55:31.394Z,95899.00
2018-06-28T15:58:01.649Z,95906.00
2018-06-28T16:00:35.848Z,95896.00
2018-06-28T16:03:08.307Z,95900.00
2018-06-28T16:05:38.999Z,95914.00
2018-06-28T16:08:10.179Z,95924.00
2018-06-28T16:10:41.141Z,95914.00
2018-06-28T16:13:11.399Z,95917.00
2018-06-28T16:15:45.408Z,95914.00
2018-06-28T16:18:16.392Z,95910.00
2018-06-28T16:20:46.816Z,95916.00
2018-06-28T16:23:24.108Z,95912.00
2018-06-28T16:25:54.551Z,95931.00
2018-06-28T16:28:25.908Z,95931.00
2018-06-28T16:30:57.429Z,95943.00
2018-06-28T16:33:27.947Z,95935.00
2018-06-28T16:35:58.170Z,95945.00
2018-06-28T16:38:29.004Z,95951.00
2018-06-28T16:41:00.533Z,95938.00
2018-06-28T16:43:31.312Z,94084.00
2018-06-28T16:46:01.877Z,95930.00
2018-06-28T16:48:32.424Z,95924.00
2018-06-28T16:51:03.649Z,95923.00
2018-06-28T16:53:33.999Z,95927.00
2018-06-28T16:56:06.933Z,95920.00
2018-06-28T16:58:37.357Z,95914.00
2018-06-28T17:01:09.078Z,95916.00
2018-06-28T17:03:39.774Z,95909.00
2018-06-28T17:06:10.532Z,95914.00
2018-06-28T17:08:41.832Z,95909.00
2018-06-28T17:11:12.921Z,95905.00
2018-06-28T17:13:43.466Z,95912.00
2018-06-28T17:16:15.375Z,95904.00
2018-06-28T17:18:45.879Z,95910.00
2018-06-28T17:21:16.972Z,95912.00
2018-06-28T17:23:48.056Z,95896.00
2018-06-28T17:26:19.353Z,95901.00
2018-06-28T17:28:51.779Z,95900.00
2018-06-28T17:31:26.055Z,95910.00
2018-06-28T17:33:57.503Z,95910.00
2018-06-28T17:36:28.415Z,95898.00
2018-06-28T17:39:00.253Z,95896.00
2018-06-28T17:41:32.848Z,95899.00
2018-06-28T17:44:12.171Z,95900.00
2018-06-28T17:46:43.046Z,95895.00
2018-06-28T17:49:13.366Z,95893.00
2018-06-28T17:51:43.996Z,95902.00
2018-06-28T17:54:14.488Z,95885.00
2018-06-28T17:56:45.231Z,95888.00
2018-06-28T17:59:15.608Z,95896.00
2018-06-28T18:01:46.088Z,95900.00
2018-06-28T18:04:16.429Z,95893.00
2018-06-28T18:06:46.966Z,95893.00
2018-06-28T18:09:17.340Z,95888.00
2018-06-28T18:11:47.801Z,95885.00
2018-06-28T18:14:18.252Z,95877.00
2018-06-28T18:16:48.594Z,95891.00
2018-06-28T18:19:18.826Z,95887.00
2018-06-28T18:21:49.155Z,95880.00
2018-06-28T18:24:19.481Z,95877.00
2018-06-28T18:26:49.849Z,95876.00
2018-06-28T18:29:20.146Z,95882.00
2018-06-28T18:31:50.640Z,95875.00
2018-06-28T18:34:20.993Z,95873.00
2018-06-28T18:36:51.220Z,95880.00
2018-06-28T18:39:21.431Z,95873.00
2018-06-28T18:41:51.683Z,95873.00
2018-06-28T18:44:21.876Z,95865.00
2018-06-28T18:46:52.517Z,95871.00
2018-06-28T18:49:22.734Z,95875.00
2018-06-28T18:51:52.969Z,95868.00
2018-06-28T18:54:23.228Z,95882.00
2018-06-28T18:56:53.551Z,95878.00
2018-06-28T18:59:23.835Z,95885.00
2018-06-28T19:01:54.464Z,95882.00
2018-06-28T19:04:25.020Z,95879.00
2018-06-28T19:06:56.125Z,95878.00
2018-06-28T19:09:32.078Z,95873.00
2018-06-28T19:12:02.546Z,95890.00
2018-06-28T19:14:38.315Z,95874.00
2018-06-28T19:17:08.626Z,95870.00
2018-06-28T19:19:39.029Z,95863.00
2018-06-28T19:22:16.006Z,95871.00
2018-06-28T19:24:47.009Z,95868.00
2018-06-28T19:27:17.306Z,95874.00
2018-06-28T19:29:54.026Z,95787.00
2018-06-28T19:32:30.452Z,95878.00
2018-06-28T19:35:02.281Z,95883.00
2018-06-28T19:37:37.828Z,95885.00
2018-06-28T19:40:14.311Z,95879.00
2018-06-28T19:42:54.263Z,95876.00
2018-06-28T19:45:26.995Z,95879.00
2018-06-28T19:48:00.427Z,95880.00
2018-06-28T19:50:35.951Z,95884.00
2018-06-28T19:53:08.327Z,95877.00
2018-06-28T19:55:39.510Z,95887.00
2018-06-28T19:58:09.882Z,95883.00
2018-06-28T20:00:45.307Z,95878.00
2018-06-28T20:03:20.648Z,95876.00
2018-06-28T20:05:52.066Z,95880.00
2018-06-28T20:08:23.899Z,95878.00
2018-06-28T20:10:56.164Z,95881.00
2018-06-28T20:13:31.983Z,95880.00
2018-06-28T20:16:07.612Z,95886.00
2018-06-28T20:18:43.222Z,95879.00
2018-06-28T20:21:13.558Z,95877.00
2018-06-28T20:23:44.157Z,95873.00
2018-06-28T20:26:20.265Z,95872.00
2018-06-28T20:28:55.978Z,95874.00
2018-06-28T20:31:32.173Z,95878.00
2018-06-28T20:34:09.849Z,95872.00
2018-06-28T20:36:41.596Z,95876.00
2018-06-28T20:39:12.681Z,95873.00
2018-06-28T20:41:43.874Z,95866.00
2018-06-28T20:44:14.728Z,95858.00
2018-06-28T20:46:45.360Z,95869.00
2018-06-28T20:49:16.548Z,95860.00
2018-06-28T20:51:47.660Z,95862.00
2018-06-28T20:54:18.133Z,95865.00
2018-06-28T20:56:48.415Z,95869.00
2018-06-28T20:59:19.418Z,95873.00
2018-06-28T21:01:50.580Z,95873.00
2018-06-28T21:04:21.017Z,95869.00
2018-06-28T21:06:51.949Z,95852.00
2018-06-28T21:09:23.064Z,95858.00
2018-06-28T21:11:54.654Z,95858.00
2018-06-28T21:14:25.620Z,95864.00
2018-06-28T21:16:57.085Z,95859.00
2018-06-28T21:19:27.890Z,95858.00
2018-06-28T21:21:59.787Z,95861.00
2018-06-28T21:24:32.592Z,95857.00
2018-06-28T21:27:05.107Z,95863.00
2018-06-28T21:29:37.631Z,95871.00
2018-06-28T21:32:11.458Z,95861.00
2018-06-28T21:34:50.190Z,95859.00
2018-06-28T21:37:22.013Z,95866.00
2018-06-28T21:39:53.454Z,95392.00
2018-06-28T21:42:24.866Z,95856.00
2018-06-28T21:44:56.029Z,95859.00
2018-06-28T21:47:28.049Z,95853.00
2018-06-28T21:50:00.434Z,95850.00
2018-06-28T21:52:31.784Z,95851.00
2018-06-28T21:55:02.916Z,95854.00
2018-06-28T21:57:36.679Z,95850.00
2018-06-28T22:00:10.147Z,95850.00
2018-06-28T22:02:41.063Z,95862.00
2018-06-28T22:05:11.957Z,95856.00
2018-06-28T22:07:43.891Z,95859.00
2018-06-28T22:10:15.379Z,95856.00
2018-06-28T22:12:46.456Z,95849.00
2018-06-28T22:15:25.876Z,95849.00
2018-06-28T22:17:58.884Z,95851.00
2018-06-28T22:20:31.395Z,95852.00
2018-06-28T22:23:03.077Z,95853.00
2018-06-28T22:25:34.099Z,95854.00
2018-06-28T22:28:05.038Z,95846.00
2018-06-28T22:30:36.472Z,95847.00
2018-06-28T22:33:07.438Z,95850.00
2018-06-28T22:35:38.831Z,95844.00
2018-06-28T22:38:10.332Z,95844.00
2018-06-28T22:40:41.823Z,95847.00
2018-06-28T22:43:12.121Z,95849.00
2018-06-28T22:45:42.535Z,95842.00
2018-06-28T22:48:12.766Z,95841.00
2018-06-28T22:50:43.037Z,95836.00
2018-06-28T22:53:13.267Z,95845.00
2018-06-28T22:55:43.687Z,95836.00
2018-06-28T22:58:13.919Z,95834.00
2018-06-28T23:00:44.270Z,95829.00
2018-06-28T23:03:14.520Z,95835.00
2018-06-28T23:05:44.759Z,95836.00
2018-06-28T23:08:15.034Z,95840.00
2018-06-28T23:10:45.236Z,95826.00
2018-06-28T23:13:15.470Z,95822.00
2018-06-28T23:15:46.070Z,95815.00
2018-06-28T23:18:16.555Z,95814.00
2018-06-28T23:20:46.795Z,95824.00
2018-06-28T23:23:17.021Z,95829.00
2018-06-28T23:25:47.229Z,95829.00
2018-06-28T23:28:17.458Z,95828.00
2018-06-28T23:30:47.667Z,95827.00
2018-06-28T23:33:17.928Z,95828.00
2018-06-28T23:35:48.115Z,95837.00
2018-06-28T23:38:18.350Z,95824.00
2018-06-28T23:40:48.539Z,95833.00
2018-06-28T23:43:18.957Z,95823.00
2018-06-28T23:45:49.057Z,95815.00
2018-06-28T23:48:19.306Z,95820.00
2018-06-28T23:50:49.627Z,95833.00
2018-06-28T23:53:19.854Z,95656.00
2018-06-28T23:55:50.232Z,95811.00
2018-06-28T23:58:20.590Z,95809.00
